Time;durP1;ratioP1;P1;durP2;ratioP2;P2;SDS_P1;SDS_P2;PMS_P1;PMS_P2;Temp;Humidity;BMP_temperature;BMP_pressure;BME280_temperature;BME280_humidity;BME280_pressure;Samples;Min_cycle;Max_cycle;Signal;HPM_P1;HPM_P2
2022/03/28 00:00:08;;;;;;;;;;;8.50;99.90;;;;;;2084001;28;19905;-68
2022/03/28 00:01:09;;;;;;;;;;;8.40;99.90;;;;;;2079093;28;19971;-68
2022/03/28 00:02:09;;;;;;;;;;;8.50;99.90;;;;;;2082111;28;19932;-68
2022/03/28 00:03:11;;;;;;;;;;;8.40;99.90;;;;;;2079843;28;19909;-68
2022/03/28 00:04:12;;;;;;;;;;;8.40;99.90;;;;;;2081937;28;20360;-68
2022/03/28 00:05:16;;;;;;;;;;;8.40;99.90;;;;;;2077065;28;20404;-68
2022/03/28 00:06:16;;;;;;;;;;;8.40;99.90;;;;;;2082680;28;19959;-68
2022/03/28 00:07:17;;;;;;;;;;;8.40;99.90;;;;;;2081873;28;19956;-68
2022/03/28 00:08:17;;;;;;;;;;;8.40;99.90;;;;;;2082120;28;19963;-68
2022/03/28 00:09:18;;;;;;;;;;;8.40;99.90;;;;;;2084215;28;19909;-68
2022/03/28 00:10:19;;;;;;;;;;;8.30;99.90;;;;;;2081852;28;19909;-68
2022/03/28 00:11:19;;;;;;;;;;;8.30;99.90;;;;;;2082088;28;19909;-68
2022/03/28 00:12:20;;;;;;;;;;;8.30;99.90;;;;;;2081643;28;19916;-68
2022/03/28 00:13:20;;;;;;;;;;;8.30;99.90;;;;;;2078297;28;19909;-68
2022/03/28 00:14:21;;;;;;;;;;;8.30;99.90;;;;;;2083260;28;19915;-68
2022/03/28 00:15:21;;;;;;;;;;;8.30;99.90;;;;;;2083055;28;20490;-68
2022/03/28 00:16:23;;;;;;;;;;;8.30;99.90;;;;;;2082647;28;19964;-68
2022/03/28 00:17:23;;;;;;;;;;;8.30;99.90;;;;;;2084084;28;19913;-68
2022/03/28 00:18:24;;;;;;;;;;;8.20;99.90;;;;;;2080990;28;19913;-67
2022/03/28 00:19:24;;;;;;;;;;;8.20;99.90;;;;;;2079872;28;19909;-68
2022/03/28 00:20:25;;;;;;;;;;;8.20;99.90;;;;;;2082850;28;19905;-68
2022/03/28 00:21:25;;;;;;;;;;;8.20;99.90;;;;;;2078231;28;19913;-68
2022/03/28 00:22:26;;;;;;;;;;;8.20;99.90;;;;;;2083108;28;20349;-68
2022/03/28 00:23:26;;;;;;;;;;;8.20;99.90;;;;;;2083422;28;19909;-68
2022/03/28 00:24:27;;;;;;;;;;;8.20;99.90;;;;;;2082846;28;20064;-68
2022/03/28 00:25:27;;;;;;;;;;;8.20;99.90;;;;;;2083200;28;19913;-68
2022/03/28 00:26:28;;;;;;;;;;;8.20;99.90;;;;;;2081033;28;19911;-68
2022/03/28 00:27:28;;;;;;;;;;;8.10;99.90;;;;;;2082577;28;20382;-68
2022/03/28 00:28:29;;;;;;;;;;;8.10;99.90;;;;;;2078093;28;20241;-68
2022/03/28 00:29:29;;;;;;;;;;;8.10;99.90;;;;;;2081205;28;19905;-68
2022/03/28 00:30:30;;;;;;;;;;;8.10;99.90;;;;;;2082609;28;20334;-68
2022/03/28 00:31:30;;;;;;;;;;;8.10;99.90;;;;;;2084026;28;19905;-68
2022/03/28 00:32:30;;;;;;;;;;;8.10;99.90;;;;;;2082845;28;20273;-68
2022/03/28 00:33:31;;;;;;;;;;;8.10;99.90;;;;;;2081918;28;19909;-68
2022/03/28 00:34:31;;;;;;;;;;;8.10;99.90;;;;;;2080878;28;19931;-68
2022/03/28 00:35:33;;;;;;;;;;;8.10;99.90;;;;;;2083675;28;19999;-68
2022/03/28 00:36:33;;;;;;;;;;;8.10;99.90;;;;;;2078724;28;20384;-68
2022/03/28 00:37:37;;;;;;;;;;;8.00;99.90;;;;;;2081801;28;20264;-68
2022/03/28 00:38:38;;;;;;;;;;;8.00;99.90;;;;;;2082013;28;19909;-68
2022/03/28 00:39:38;;;;;;;;;;;8.00;99.90;;;;;;2084409;28;19909;-68
2022/03/28 00:40:39;;;;;;;;;;;8.00;99.90;;;;;;2083842;28;19934;-68
2022/03/28 00:41:40;;;;;;;;;;;8.00;99.90;;;;;;2080524;28;19905;-68
2022/03/28 00:42:41;;;;;;;;;;;8.00;99.90;;;;;;2080494;28;19909;-68
2022/03/28 00:44:02;;;;;;;;;;;8.00;99.90;;;;;;2082299;28;19909;-68
2022/03/28 00:45:06;;;;;;;;;;;8.00;99.90;;;;;;2080568;28;19955;-68
2022/03/28 00:46:07;;;;;;;;;;;7.90;99.90;;;;;;2077073;28;19913;-68
2022/03/28 00:47:07;;;;;;;;;;;8.00;99.90;;;;;;2084587;28;19913;-68
2022/03/28 00:48:09;;;;;;;;;;;7.90;99.90;;;;;;2085899;28;20376;-68
2022/03/28 00:49:10;;;;;;;;;;;7.90;99.90;;;;;;2081732;28;19905;-68
2022/03/28 00:50:10;;;;;;;;;;;7.90;99.90;;;;;;2080437;28;20052;-68
2022/03/28 00:51:11;;;;;;;;;;;7.90;99.90;;;;;;2081297;28;20327;-68
2022/03/28 00:52:12;;;;;;;;;;;7.90;99.90;;;;;;2078689;28;19995;-68
2022/03/28 00:53:13;;;;;;;;;;;7.90;99.90;;;;;;2082122;28;19905;-68
2022/03/28 00:54:13;;;;;;;;;;;7.90;99.90;;;;;;2084031;28;19905;-68
2022/03/28 00:55:14;;;;;;;;;;;7.80;99.90;;;;;;2080423;28;19950;-68
2022/03/28 00:56:15;;;;;;;;;;;7.80;99.90;;;;;;2084355;28;20399;-68
2022/03/28 00:57:17;;;;;;;;;;;7.80;99.90;;;;;;2076893;28;20248;-68
2022/03/28 00:58:17;;;;;;;;;;;7.80;99.90;;;;;;2083357;28;19905;-68
2022/03/28 00:59:18;;;;;;;;;;;7.80;99.90;;;;;;2076692;28;19923;-68
2022/03/28 01:00:18;;;;;;;;;;;7.80;99.90;;;;;;2078603;28;19905;-68
2022/03/28 01:01:19;;;;;;;;;;;7.80;99.90;;;;;;2082659;28;20455;-68
2022/03/28 01:02:19;;;;;;;;;;;7.80;99.90;;;;;;2083437;28;19995;-68
2022/03/28 01:03:20;;;;;;;;;;;7.80;99.90;;;;;;2083856;28;19913;-68
2022/03/28 01:04:20;;;;;;;;;;;7.80;99.90;;;;;;2084149;28;19905;-68
2022/03/28 01:05:21;;;;;;;;;;;7.70;99.90;;;;;;2080638;28;19920;-68
2022/03/28 01:06:22;;;;;;;;;;;7.70;99.90;;;;;;2085044;28;19908;-68
2022/03/28 01:07:25;;;;;;;;;;;7.70;99.90;;;;;;2078871;28;19916;-68
2022/03/28 01:08:26;;;;;;;;;;;7.70;99.90;;;;;;2077864;28;19913;-68
2022/03/28 01:09:27;;;;;;;;;;;7.70;99.90;;;;;;2080616;28;19954;-68
2022/03/28 01:10:29;;;;;;;;;;;7.70;99.90;;;;;;2080596;28;19913;-68
2022/03/28 01:11:32;;;;;;;;;;;7.70;99.90;;;;;;2073358;28;19913;-68
2022/03/28 01:12:34;;;;;;;;;;;7.70;99.90;;;;;;2078049;28;19913;-68
2022/03/28 01:13:36;;;;;;;;;;;7.70;99.90;;;;;;2077641;28;20000;-68
2022/03/28 01:14:37;;;;;;;;;;;7.60;99.90;;;;;;2082633;28;19904;-68
2022/03/28 01:15:37;;;;;;;;;;;7.70;99.90;;;;;;2077746;28;19913;-68
2022/03/28 01:18:07;;;;;;;;;;;7.60;99.90;;;;;;2083181;28;19912;-68
2022/03/28 01:19:07;;;;;;;;;;;7.60;99.90;;;;;;2082681;28;19915;-68
2022/03/28 01:20:08;;;;;;;;;;;7.60;99.90;;;;;;2081104;28;19916;-68
2022/03/28 01:21:09;;;;;;;;;;;7.60;99.90;;;;;;2081009;28;19932;-68
2022/03/28 01:22:09;;;;;;;;;;;7.60;99.90;;;;;;2082658;28;20353;-68
2022/03/28 01:23:10;;;;;;;;;;;7.60;99.90;;;;;;2079601;28;19910;-68
2022/03/28 01:24:11;;;;;;;;;;;7.60;99.90;;;;;;2081514;28;19928;-68
2022/03/28 01:25:12;;;;;;;;;;;7.50;99.90;;;;;;2078519;28;19909;-68
2022/03/28 01:26:13;;;;;;;;;;;7.50;99.90;;;;;;2081125;28;19911;-68
2022/03/28 01:27:14;;;;;;;;;;;7.50;99.90;;;;;;2083952;28;19909;-68
2022/03/28 01:28:15;;;;;;;;;;;7.50;99.90;;;;;;2082325;28;20000;-68
2022/03/28 01:29:16;;;;;;;;;;;7.50;99.90;;;;;;2081945;28;20411;-68
2022/03/28 01:30:17;;;;;;;;;;;7.50;99.90;;;;;;2082413;28;19905;-68
2022/03/28 01:31:17;;;;;;;;;;;7.50;99.90;;;;;;2084025;28;19909;-68
2022/03/28 01:32:18;;;;;;;;;;;7.50;99.90;;;;;;2081145;28;20373;-68
2022/03/28 01:33:18;;;;;;;;;;;7.50;99.90;;;;;;2079162;28;19940;-68
2022/03/28 01:34:19;;;;;;;;;;;7.50;99.90;;;;;;2083994;28;19905;-68
2022/03/28 01:35:30;;;;;;;;;;;7.40;99.90;;;;;;2083461;28;19935;-68
2022/03/28 01:36:31;;;;;;;;;;;7.40;99.90;;;;;;2079130;28;19905;-68
2022/03/28 01:37:31;;;;;;;;;;;7.40;99.90;;;;;;2080651;28;19916;-68
2022/03/28 01:38:32;;;;;;;;;;;7.40;99.90;;;;;;2081511;28;19998;-68
2022/03/28 01:39:32;;;;;;;;;;;7.40;99.90;;;;;;2081801;28;19908;-68
2022/03/28 01:40:33;;;;;;;;;;;7.40;99.90;;;;;;2080681;28;19913;-68
2022/03/28 01:41:34;;;;;;;;;;;7.40;99.90;;;;;;2080732;28;19905;-68
2022/03/28 01:42:34;;;;;;;;;;;7.40;99.90;;;;;;2082660;28;19913;-68
2022/03/28 01:43:35;;;;;;;;;;;7.40;99.90;;;;;;2083808;28;20308;-68
2022/03/28 01:44:35;;;;;;;;;;;7.40;99.90;;;;;;2081094;28;19913;-68
2022/03/28 01:45:36;;;;;;;;;;;7.40;99.90;;;;;;2080716;28;19905;-68
2022/03/28 01:46:46;;;;;;;;;;;7.30;99.90;;;;;;2083523;28;19947;-68
2022/03/28 01:47:47;;;;;;;;;;;7.30;99.90;;;;;;2079198;28;19978;-68
2022/03/28 01:48:48;;;;;;;;;;;7.30;99.90;;;;;;2079558;28;19924;-68
2022/03/28 01:49:48;;;;;;;;;;;7.30;99.90;;;;;;2079042;28;19944;-68
2022/03/28 01:50:48;;;;;;;;;;;7.30;99.90;;;;;;2082668;28;19951;-68
2022/03/28 01:51:50;;;;;;;;;;;7.30;99.90;;;;;;2083530;28;19913;-68
2022/03/28 01:52:51;;;;;;;;;;;7.30;99.90;;;;;;2081134;28;19948;-68
2022/03/28 01:53:51;;;;;;;;;;;7.30;99.90;;;;;;2079960;28;19905;-68
2022/03/28 01:54:52;;;;;;;;;;;7.30;99.90;;;;;;2079067;28;20361;-68
2022/03/28 01:55:52;;;;;;;;;;;7.30;99.90;;;;;;2079043;28;19908;-68
2022/03/28 01:56:52;;;;;;;;;;;7.30;99.90;;;;;;2078520;28;19991;-68
2022/03/28 01:57:53;;;;;;;;;;;7.20;99.90;;;;;;2078604;28;20003;-68
2022/03/28 01:58:54;;;;;;;;;;;7.30;99.90;;;;;;2084715;28;20264;-68
2022/03/28 01:59:54;;;;;;;;;;;7.20;99.90;;;;;;2083141;28;19905;-68
2022/03/28 02:00:55;;;;;;;;;;;7.20;99.90;;;;;;2081009;28;19909;-68
2022/03/28 02:01:55;;;;;;;;;;;7.20;99.90;;;;;;2081231;28;19916;-68
2022/03/28 02:02:56;;;;;;;;;;;7.20;99.90;;;;;;2078393;28;19909;-68
2022/03/28 02:03:57;;;;;;;;;;;7.20;99.90;;;;;;2078258;28;20003;-68
2022/03/28 02:04:57;;;;;;;;;;;7.20;99.90;;;;;;2077957;28;19909;-68
2022/03/28 02:05:58;;;;;;;;;;;7.20;99.90;;;;;;2081873;28;19909;-68
2022/03/28 02:06:58;;;;;;;;;;;7.10;99.90;;;;;;2081777;28;20388;-68
2022/03/28 02:07:59;;;;;;;;;;;7.10;99.90;;;;;;2081190;28;19958;-68
2022/03/28 02:09:00;;;;;;;;;;;7.10;99.90;;;;;;2081965;28;20238;-68
2022/03/28 02:10:00;;;;;;;;;;;7.10;99.90;;;;;;2080306;28;19928;-68
2022/03/28 02:11:01;;;;;;;;;;;7.10;99.90;;;;;;2081135;28;20075;-68
2022/03/28 02:12:01;;;;;;;;;;;7.10;99.90;;;;;;2082371;28;19913;-68
2022/03/28 02:13:02;;;;;;;;;;;7.10;99.90;;;;;;2077293;28;20285;-68
2022/03/28 02:14:02;;;;;;;;;;;7.10;99.90;;;;;;2079549;28;19913;-68
2022/03/28 02:15:05;;;;;;;;;;;7.00;99.90;;;;;;2079094;28;19905;-68
2022/03/28 02:16:06;;;;;;;;;;;7.00;99.90;;;;;;2079520;28;19959;-68
2022/03/28 02:17:06;;;;;;;;;;;7.10;99.90;;;;;;2080648;28;19960;-68
2022/03/28 02:18:07;;;;;;;;;;;7.00;99.90;;;;;;2080657;28;19913;-68
2022/03/28 02:19:07;;;;;;;;;;;7.00;99.90;;;;;;2078235;28;20369;-68
2022/03/28 02:20:08;;;;;;;;;;;7.00;99.90;;;;;;2068523;28;19913;-68
2022/03/28 02:21:09;;;;;;;;;;;7.00;99.90;;;;;;2083526;28;19913;-68
2022/03/28 02:22:09;;;;;;;;;;;7.00;99.90;;;;;;2083836;28;20017;-68
2022/03/28 02:23:10;;;;;;;;;;;7.00;99.90;;;;;;2082488;28;19944;-68
2022/03/28 02:24:10;;;;;;;;;;;7.00;99.90;;;;;;2080249;28;19909;-68
2022/03/28 02:25:11;;;;;;;;;;;7.00;99.90;;;;;;2081252;28;19934;-68
2022/03/28 02:26:13;;;;;;;;;;;7.00;99.90;;;;;;2078891;28;19913;-68
2022/03/28 02:27:15;;;;;;;;;;;6.90;99.90;;;;;;2078392;28;20024;-68
2022/03/28 02:28:16;;;;;;;;;;;6.90;99.90;;;;;;2077325;28;19955;-68
2022/03/28 02:29:16;;;;;;;;;;;6.90;99.90;;;;;;2079258;28;19905;-68
2022/03/28 02:30:16;;;;;;;;;;;6.90;99.90;;;;;;2079831;28;19905;-68
2022/03/28 02:31:17;;;;;;;;;;;6.90;99.90;;;;;;2083644;28;20435;-68
2022/03/28 02:32:18;;;;;;;;;;;6.90;99.90;;;;;;2082646;28;20108;-68
2022/03/28 02:33:18;;;;;;;;;;;6.90;99.90;;;;;;2080581;28;19912;-68
2022/03/28 02:34:19;;;;;;;;;;;6.90;99.90;;;;;;2078350;28;19910;-68
2022/03/28 02:35:19;;;;;;;;;;;6.90;99.90;;;;;;2080579;28;19905;-68
2022/03/28 02:36:20;;;;;;;;;;;6.90;99.90;;;;;;2078069;28;19944;-68
2022/03/28 02:37:21;;;;;;;;;;;6.90;99.90;;;;;;2081938;28;19947;-68
2022/03/28 02:38:21;;;;;;;;;;;6.90;99.90;;;;;;2083809;28;19919;-68
2022/03/28 02:39:22;;;;;;;;;;;6.80;99.90;;;;;;2084186;28;20006;-68
2022/03/28 02:40:22;;;;;;;;;;;6.80;99.90;;;;;;2082590;28;19921;-68
2022/03/28 02:41:23;;;;;;;;;;;6.80;99.90;;;;;;2078273;28;19912;-68
2022/03/28 02:42:23;;;;;;;;;;;6.80;99.90;;;;;;2078146;28;20491;-68
2022/03/28 02:43:23;;;;;;;;;;;6.80;99.90;;;;;;2080015;28;19905;-68
2022/03/28 02:44:24;;;;;;;;;;;6.80;99.90;;;;;;2079374;28;19995;-68
2022/03/28 02:45:25;;;;;;;;;;;6.80;99.90;;;;;;2081591;28;19912;-68
2022/03/28 02:46:25;;;;;;;;;;;6.80;99.90;;;;;;2083624;28;19911;-68
2022/03/28 02:47:26;;;;;;;;;;;6.80;99.90;;;;;;2079913;28;19909;-68
2022/03/28 02:48:26;;;;;;;;;;;6.80;99.90;;;;;;2082394;28;19917;-68
2022/03/28 02:49:27;;;;;;;;;;;6.80;99.90;;;;;;2078502;28;20318;-68
2022/03/28 02:50:28;;;;;;;;;;;6.80;99.90;;;;;;2080684;28;20026;-68
2022/03/28 02:51:29;;;;;;;;;;;6.80;99.90;;;;;;2078375;28;19905;-68
2022/03/28 02:52:29;;;;;;;;;;;6.70;99.90;;;;;;2079294;28;20411;-68
2022/03/28 02:53:30;;;;;;;;;;;6.80;99.90;;;;;;2082246;28;20265;-68
2022/03/28 02:54:30;;;;;;;;;;;6.70;99.90;;;;;;2079300;28;19995;-68
2022/03/28 02:55:30;;;;;;;;;;;6.70;99.90;;;;;;2080485;28;19905;-68
2022/03/28 02:56:31;;;;;;;;;;;6.70;99.90;;;;;;2080456;28;20364;-68
2022/03/28 02:57:31;;;;;;;;;;;6.70;99.90;;;;;;2076486;28;19916;-68
2022/03/28 02:58:32;;;;;;;;;;;6.70;99.90;;;;;;2078314;28;20755;-68
2022/03/28 02:59:32;;;;;;;;;;;6.70;99.90;;;;;;2078030;28;20300;-68
2022/03/28 03:00:33;;;;;;;;;;;6.70;99.90;;;;;;2080146;28;19908;-68
2022/03/28 03:01:34;;;;;;;;;;;6.70;99.90;;;;;;2083418;28;19909;-68
2022/03/28 03:02:35;;;;;;;;;;;6.70;99.90;;;;;;2079820;28;19952;-68
2022/03/28 03:03:35;;;;;;;;;;;6.70;99.90;;;;;;2080683;28;19909;-68
2022/03/28 03:04:36;;;;;;;;;;;6.70;99.90;;;;;;2082136;28;19911;-68
2022/03/28 03:05:36;;;;;;;;;;;6.70;99.90;;;;;;2078428;28;19912;-68
2022/03/28 03:06:37;;;;;;;;;;;6.60;99.90;;;;;;2081309;28;20288;-68
2022/03/28 03:07:38;;;;;;;;;;;6.60;99.90;;;;;;2080252;28;19917;-68
2022/03/28 03:08:38;;;;;;;;;;;6.60;99.90;;;;;;2080682;28;19954;-68
2022/03/28 03:09:39;;;;;;;;;;;6.60;99.90;;;;;;2083511;28;20323;-68
2022/03/28 03:10:39;;;;;;;;;;;6.60;99.90;;;;;;2080759;28;19905;-68
2022/03/28 03:11:40;;;;;;;;;;;6.60;99.90;;;;;;2078856;28;20004;-68
2022/03/28 03:12:41;;;;;;;;;;;6.60;99.90;;;;;;2079511;28;20367;-68
2022/03/28 03:13:41;;;;;;;;;;;6.60;99.90;;;;;;2077808;28;19963;-68
2022/03/28 03:14:41;;;;;;;;;;;6.60;99.90;;;;;;2081102;28;20007;-68
2022/03/28 03:15:42;;;;;;;;;;;6.50;99.90;;;;;;2080055;28;19912;-68
2022/03/28 03:16:42;;;;;;;;;;;6.50;99.90;;;;;;2083395;28;19936;-68
2022/03/28 03:17:43;;;;;;;;;;;6.60;99.90;;;;;;2083532;28;19992;-69
2022/03/28 03:18:43;;;;;;;;;;;6.60;99.90;;;;;;2080972;28;19913;-68
2022/03/28 03:19:44;;;;;;;;;;;6.60;99.90;;;;;;2079447;28;19905;-68
2022/03/28 03:20:45;;;;;;;;;;;6.50;99.90;;;;;;2077819;28;19909;-68
2022/03/28 03:21:48;;;;;;;;;;;6.50;99.90;;;;;;2077753;28;20349;-68
2022/03/28 03:22:49;;;;;;;;;;;6.50;99.90;;;;;;2078687;28;19909;-68
2022/03/28 03:23:49;;;;;;;;;;;6.50;99.90;;;;;;2080623;28;19944;-68
2022/03/28 03:24:50;;;;;;;;;;;6.50;99.90;;;;;;2083424;28;19909;-68
2022/03/28 03:25:50;;;;;;;;;;;6.50;99.90;;;;;;2082655;28;19935;-68
2022/03/28 03:26:50;;;;;;;;;;;6.50;99.90;;;;;;2081439;28;19909;-68
2022/03/28 03:27:51;;;;;;;;;;;6.50;99.90;;;;;;2082189;28;19909;-68
2022/03/28 03:28:55;;;;;;;;;;;6.50;99.90;;;;;;2077859;28;20342;-68
2022/03/28 03:29:56;;;;;;;;;;;6.50;99.90;;;;;;2079528;28;19909;-68
2022/03/28 03:30:56;;;;;;;;;;;6.50;99.90;;;;;;2078491;28;20027;-68
2022/03/28 03:31:57;;;;;;;;;;;6.50;99.90;;;;;;2079200;28;19905;-68
2022/03/28 03:32:57;;;;;;;;;;;6.50;99.90;;;;;;2082716;28;19905;-68
2022/03/28 03:33:59;;;;;;;;;;;6.50;99.90;;;;;;2081777;28;20411;-68
2022/03/28 03:34:59;;;;;;;;;;;6.40;99.90;;;;;;2082659;28;19912;-68
2022/03/28 03:36:01;;;;;;;;;;;6.40;99.90;;;;;;2080283;28;19913;-68
2022/03/28 03:37:02;;;;;;;;;;;6.40;99.90;;;;;;2078591;28;20280;-68
2022/03/28 03:38:03;;;;;;;;;;;6.40;99.90;;;;;;2079347;28;19996;-68
2022/03/28 03:39:04;;;;;;;;;;;6.40;99.90;;;;;;2077260;28;19917;-68
2022/03/28 03:40:05;;;;;;;;;;;6.40;99.90;;;;;;2082841;28;19932;-68
2022/03/28 03:41:05;;;;;;;;;;;6.40;99.90;;;;;;2082485;28;19948;-68
2022/03/28 03:42:06;;;;;;;;;;;6.40;99.90;;;;;;2082121;28;19909;-68
2022/03/28 03:43:07;;;;;;;;;;;6.40;99.90;;;;;;2082387;28;19909;-68
2022/03/28 03:44:08;;;;;;;;;;;6.30;99.90;;;;;;2076547;28;19991;-68
2022/03/28 03:45:09;;;;;;;;;;;6.30;99.90;;;;;;2081284;28;20348;-68
2022/03/28 03:46:09;;;;;;;;;;;6.30;99.90;;;;;;2079343;28;19905;-68
2022/03/28 03:47:10;;;;;;;;;;;6.30;99.90;;;;;;2077658;28;19910;-68
2022/03/28 03:48:10;;;;;;;;;;;6.30;99.90;;;;;;2083435;28;19912;-68
2022/03/28 03:49:11;;;;;;;;;;;6.30;99.90;;;;;;2083504;28;20303;-68
2022/03/28 03:50:11;;;;;;;;;;;6.30;99.90;;;;;;2079421;28;19952;-68
2022/03/28 03:51:13;;;;;;;;;;;6.30;99.90;;;;;;2082688;28;19920;-68
2022/03/28 03:52:14;;;;;;;;;;;6.30;99.90;;;;;;2078899;28;19906;-68
2022/03/28 03:53:14;;;;;;;;;;;6.30;99.90;;;;;;2080796;28;19913;-68
2022/03/28 03:54:15;;;;;;;;;;;6.30;99.90;;;;;;2077586;28;19956;-68
2022/03/28 03:55:16;;;;;;;;;;;6.30;99.90;;;;;;2077140;28;19916;-68
2022/03/28 03:56:17;;;;;;;;;;;6.30;99.90;;;;;;2083905;28;20000;-68
2022/03/28 03:57:17;;;;;;;;;;;6.30;99.90;;;;;;2076839;28;19905;-68
2022/03/28 03:58:18;;;;;;;;;;;6.20;99.90;;;;;;2075527;28;19910;-68
2022/03/28 03:59:18;;;;;;;;;;;6.20;99.90;;;;;;2080546;28;19955;-68
2022/03/28 04:00:19;;;;;;;;;;;6.20;99.90;;;;;;2078870;28;20333;-68
2022/03/28 04:01:20;;;;;;;;;;;6.20;99.90;;;;;;2083924;28;19913;-68
2022/03/28 04:02:20;;;;;;;;;;;6.20;99.90;;;;;;2076938;28;19992;-68
2022/03/28 04:03:21;;;;;;;;;;;6.20;99.90;;;;;;2082108;28;19909;-68
2022/03/28 04:04:21;;;;;;;;;;;6.20;99.90;;;;;;2083731;28;19909;-68
2022/03/28 04:05:22;;;;;;;;;;;6.20;99.90;;;;;;2082521;28;19913;-68
2022/03/28 04:06:22;;;;;;;;;;;6.20;99.90;;;;;;2084312;28;20071;-68
2022/03/28 04:07:23;;;;;;;;;;;6.20;99.90;;;;;;2081627;28;20254;-68
2022/03/28 04:08:24;;;;;;;;;;;6.20;99.90;;;;;;2079956;28;19910;-68
2022/03/28 04:09:24;;;;;;;;;;;6.20;99.90;;;;;;2082463;28;19909;-68
2022/03/28 04:10:26;;;;;;;;;;;6.20;99.90;;;;;;2078349;28;19909;-68
2022/03/28 04:11:26;;;;;;;;;;;6.20;99.90;;;;;;2084253;28;19909;-68
2022/03/28 04:12:27;;;;;;;;;;;6.20;99.90;;;;;;2085363;28;19912;-68
2022/03/28 04:13:28;;;;;;;;;;;6.10;99.90;;;;;;2083842;28;20399;-68
2022/03/28 04:14:28;;;;;;;;;;;6.10;99.90;;;;;;2083818;28;19916;-68
2022/03/28 04:15:29;;;;;;;;;;;6.20;99.90;;;;;;2084216;28;19909;-67
2022/03/28 04:16:29;;;;;;;;;;;6.10;99.90;;;;;;2082236;28;19995;-67
2022/03/28 04:17:38;;;;;;;;;;;6.10;99.90;;;;;;2081723;28;19915;-68
2022/03/28 04:18:38;;;;;;;;;;;6.10;99.90;;;;;;2077211;28;19909;-68
2022/03/28 04:19:38;;;;;;;;;;;6.10;99.90;;;;;;2080913;28;19912;-67
2022/03/28 04:20:39;;;;;;;;;;;6.10;99.90;;;;;;2084243;28;19904;-67
2022/03/28 04:21:40;;;;;;;;;;;6.10;99.90;;;;;;2083518;28;20296;-68
2022/03/28 04:22:40;;;;;;;;;;;6.10;99.90;;;;;;2083511;28;19908;-67
2022/03/28 04:23:41;;;;;;;;;;;6.00;99.90;;;;;;2082653;28;19909;-67
2022/03/28 04:24:41;;;;;;;;;;;6.00;99.90;;;;;;2080121;28;19960;-67
2022/03/28 04:25:42;;;;;;;;;;;6.00;99.90;;;;;;2079900;28;19967;-67
2022/03/28 04:26:42;;;;;;;;;;;6.00;99.90;;;;;;2078475;28;19959;-67
2022/03/28 04:27:43;;;;;;;;;;;6.00;99.90;;;;;;2084573;28;19909;-67
2022/03/28 04:28:43;;;;;;;;;;;6.00;99.90;;;;;;2082329;28;19916;-67
2022/03/28 04:29:44;;;;;;;;;;;6.00;99.90;;;;;;2079315;28;19905;-67
2022/03/28 04:30:44;;;;;;;;;;;6.00;99.90;;;;;;2083138;28;19905;-68
2022/03/28 04:31:45;;;;;;;;;;;6.00;99.90;;;;;;2080421;28;19937;-67
2022/03/28 04:32:46;;;;;;;;;;;6.00;99.90;;;;;;2082606;28;20307;-67
2022/03/28 04:33:46;;;;;;;;;;;6.00;99.90;;;;;;2078712;28;19987;-68
2022/03/28 04:34:47;;;;;;;;;;;6.00;99.90;;;;;;2078286;28;20352;-67
2022/03/28 04:35:48;;;;;;;;;;;6.00;99.90;;;;;;2084395;28;19950;-67
2022/03/28 04:36:48;;;;;;;;;;;6.00;99.90;;;;;;2082082;28;19950;-68
2022/03/28 04:37:48;;;;;;;;;;;6.00;99.90;;;;;;2082614;28;20303;-67
2022/03/28 04:38:49;;;;;;;;;;;6.00;99.90;;;;;;2083461;28;20687;-67
2022/03/28 04:39:49;;;;;;;;;;;6.00;99.90;;;;;;2080640;28;19905;-67
2022/03/28 04:40:50;;;;;;;;;;;6.00;99.90;;;;;;2081838;28;19913;-67
2022/03/28 04:41:51;;;;;;;;;;;6.00;99.90;;;;;;2080089;28;19909;-67
2022/03/28 04:42:51;;;;;;;;;;;6.00;99.90;;;;;;2082382;28;19913;-67
2022/03/28 04:43:52;;;;;;;;;;;5.90;99.90;;;;;;2084871;28;19908;-67
2022/03/28 04:44:52;;;;;;;;;;;5.90;99.90;;;;;;2082914;28;19920;-67
2022/03/28 04:45:53;;;;;;;;;;;5.90;99.90;;;;;;2081810;28;19951;-67
2022/03/28 04:46:53;;;;;;;;;;;5.90;99.90;;;;;;2082130;28;19992;-68
2022/03/28 04:47:54;;;;;;;;;;;5.90;99.90;;;;;;2080530;28;20360;-67
2022/03/28 04:48:54;;;;;;;;;;;5.90;99.90;;;;;;2080288;28;19908;-67
2022/03/28 04:49:55;;;;;;;;;;;5.90;99.90;;;;;;2075643;28;19916;-67
2022/03/28 04:50:55;;;;;;;;;;;5.90;99.90;;;;;;2077579;28;20419;-67
2022/03/28 04:51:56;;;;;;;;;;;5.90;99.90;;;;;;2081357;28;19909;-67
2022/03/28 04:52:56;;;;;;;;;;;5.90;99.90;;;;;;2080356;28;19905;-67
2022/03/28 04:53:56;;;;;;;;;;;5.90;99.90;;;;;;2078608;28;19909;-67
2022/03/28 04:54:57;;;;;;;;;;;5.90;99.90;;;;;;2079086;28;19905;-67
2022/03/28 04:55:57;;;;;;;;;;;5.90;99.90;;;;;;2081401;28;19909;-67
2022/03/28 04:56:58;;;;;;;;;;;5.90;99.90;;;;;;2079354;28;19905;-67
2022/03/28 04:57:58;;;;;;;;;;;5.90;99.90;;;;;;2077867;28;20780;-68
2022/03/28 04:58:59;;;;;;;;;;;5.90;99.90;;;;;;2077015;28;19949;-68
2022/03/28 05:00:00;;;;;;;;;;;5.90;99.90;;;;;;2083997;28;19905;-68
2022/03/28 05:01:00;;;;;;;;;;;5.80;99.90;;;;;;2082550;28;19909;-67
2022/03/28 05:02:00;;;;;;;;;;;5.80;99.90;;;;;;2076862;28;19912;-67
2022/03/28 05:03:01;;;;;;;;;;;5.80;99.90;;;;;;2077648;28;19970;-68
2022/03/28 05:04:02;;;;;;;;;;;5.80;99.90;;;;;;2079748;28;19924;-67
2022/03/28 05:05:03;;;;;;;;;;;5.80;99.90;;;;;;2078343;28;20056;-67
2022/03/28 05:06:04;;;;;;;;;;;5.80;99.90;;;;;;2078414;28;20462;-68
2022/03/28 05:07:05;;;;;;;;;;;5.80;99.90;;;;;;2080862;28;20406;-68
2022/03/28 05:08:05;;;;;;;;;;;5.80;99.90;;;;;;2080646;28;19991;-67
2022/03/28 05:09:06;;;;;;;;;;;5.80;99.90;;;;;;2079133;28;19940;-67
2022/03/28 05:10:06;;;;;;;;;;;5.80;99.90;;;;;;2080115;28;19952;-67
2022/03/28 05:11:07;;;;;;;;;;;5.80;99.90;;;;;;2077222;28;20432;-67
2022/03/28 05:12:07;;;;;;;;;;;5.80;99.90;;;;;;2078403;28;19909;-67
2022/03/28 05:13:08;;;;;;;;;;;5.80;99.90;;;;;;2080125;28;19929;-68
2022/03/28 05:14:08;;;;;;;;;;;5.80;99.90;;;;;;2078693;28;19915;-67
2022/03/28 05:15:09;;;;;;;;;;;5.70;99.90;;;;;;2074625;28;19913;-67
2022/03/28 05:16:09;;;;;;;;;;;5.70;99.90;;;;;;2079769;28;20004;-67
2022/03/28 05:17:10;;;;;;;;;;;5.70;99.90;;;;;;2082919;28;19913;-68
2022/03/28 05:18:10;;;;;;;;;;;5.70;99.90;;;;;;2076456;28;19936;-67
2022/03/28 05:19:11;;;;;;;;;;;5.70;99.90;;;;;;2077863;28;19910;-67
2022/03/28 05:20:11;;;;;;;;;;;5.70;99.90;;;;;;2079292;28;19913;-67
2022/03/28 05:21:12;;;;;;;;;;;5.70;99.90;;;;;;2076885;28;20400;-67
2022/03/28 05:22:12;;;;;;;;;;;5.70;99.90;;;;;;2075912;28;19948;-67
2022/03/28 05:23:13;;;;;;;;;;;5.70;99.90;;;;;;2076632;28;19909;-67
2022/03/28 05:24:13;;;;;;;;;;;5.70;99.90;;;;;;2076500;28;20416;-67
2022/03/28 05:25:14;;;;;;;;;;;5.70;99.90;;;;;;2073041;28;19912;-67
2022/03/28 05:26:14;;;;;;;;;;;5.70;99.90;;;;;;2073998;28;19905;-67
2022/03/28 05:27:15;;;;;;;;;;;5.70;99.90;;;;;;2074794;28;19952;-67
2022/03/28 05:28:15;;;;;;;;;;;5.70;99.90;;;;;;2073883;28;19944;-67
2022/03/28 05:29:18;;;;;;;;;;;5.70;99.90;;;;;;2073707;28;20599;-67
2022/03/28 05:30:18;;;;;;;;;;;5.70;99.90;;;;;;2076986;28;19909;-67
2022/03/28 05:31:19;;;;;;;;;;;5.70;99.90;;;;;;2078665;28;19928;-67
2022/03/28 05:32:19;;;;;;;;;;;5.70;99.90;;;;;;2075290;28;19912;-67
2022/03/28 05:33:21;;;;;;;;;;;5.70;99.90;;;;;;2074194;28;19909;-68
2022/03/28 05:34:21;;;;;;;;;;;5.70;99.90;;;;;;2073397;28;19913;-67
2022/03/28 05:35:21;;;;;;;;;;;5.70;99.90;;;;;;2076180;28;19956;-67
2022/03/28 05:36:22;;;;;;;;;;;5.70;99.90;;;;;;2073823;28;19951;-67
2022/03/28 05:37:23;;;;;;;;;;;5.70;99.90;;;;;;2074051;28;20308;-67
2022/03/28 05:38:23;;;;;;;;;;;5.70;99.90;;;;;;2073888;28;19909;-67
2022/03/28 05:39:24;;;;;;;;;;;5.70;99.90;;;;;;2074291;28;19995;-67
2022/03/28 05:40:24;;;;;;;;;;;5.70;99.90;;;;;;2069618;28;20000;-67
2022/03/28 05:41:25;;;;;;;;;;;5.70;99.90;;;;;;2074516;28;19909;-67
2022/03/28 05:42:25;;;;;;;;;;;5.70;99.90;;;;;;2073601;28;19909;-67
2022/03/28 05:43:26;;;;;;;;;;;5.70;99.90;;;;;;2075500;28;19909;-68
2022/03/28 05:44:27;;;;;;;;;;;5.70;99.90;;;;;;2074658;28;20369;-68
2022/03/28 05:45:28;;;;;;;;;;;5.70;99.90;;;;;;2075402;28;21012;-67
2022/03/28 05:46:29;;;;;;;;;;;5.70;99.90;;;;;;2074439;28;19959;-67
2022/03/28 05:47:29;;;;;;;;;;;5.70;99.90;;;;;;2074847;28;19905;-68
2022/03/28 05:48:30;;;;;;;;;;;5.70;99.90;;;;;;2075894;28;19905;-68
2022/03/28 05:49:30;;;;;;;;;;;5.70;99.90;;;;;;2074457;28;19934;-68
2022/03/28 05:50:31;;;;;;;;;;;5.70;99.90;;;;;;2074528;28;20022;-68
2022/03/28 05:51:31;;;;;;;;;;;5.70;99.90;;;;;;2074224;28;19909;-68
2022/03/28 05:52:32;;;;;;;;;;;5.70;99.90;;;;;;2073700;28;19909;-67
2022/03/28 05:53:32;;;;;;;;;;;5.70;99.90;;;;;;2074082;28;19904;-68
2022/03/28 05:54:33;;;;;;;;;;;5.70;99.90;;;;;;2075116;28;19916;-68
2022/03/28 05:55:33;;;;;;;;;;;5.70;99.90;;;;;;2074567;28;19959;-68
2022/03/28 05:56:33;;;;;;;;;;;5.80;99.90;;;;;;2075088;28;20728;-68
2022/03/28 05:57:34;;;;;;;;;;;5.80;99.90;;;;;;2075547;28;19909;-68
2022/03/28 05:58:34;;;;;;;;;;;5.80;99.90;;;;;;2073124;28;19941;-68
2022/03/28 05:59:35;;;;;;;;;;;5.80;99.90;;;;;;2074826;28;19909;-68
2022/03/28 06:00:36;;;;;;;;;;;5.80;99.90;;;;;;2076188;28;20344;-68